Time;durP1;ratioP1;P1;durP2;ratioP2;P2;SDS_P1;SDS_P2;PMS_P1;PMS_P2;Temp;Humidity;BMP_temperature;BMP_pressure;BME280_temperature;BME280_humidity;BME280_pressure;Samples;Min_cycle;Max_cycle;Signal;HPM_P1;HPM_P2
2022/08/06 00:00:32;;;;;;;;;;;;;;;21.70;43.24;100374.19;1088037;54;19949;-75
2022/08/06 00:01:33;;;;;;;;;;;;;;;21.70;43.27;100377.75;1088300;54;19979;-75
2022/08/06 00:02:37;;;;;;;;;;;;;;;21.66;43.29;100382.78;1088403;54;19943;-76
2022/08/06 00:03:38;;;;;;;;;;;;;;;21.56;43.36;100376.06;1088367;54;19946;-74
2022/08/06 00:04:42;;;;;;;;;;;;;;;21.55;43.18;100383.38;1089445;39;20441;-75
2022/08/06 00:05:43;;;;;;;;;;;;;;;21.47;43.64;100376.28;1088444;54;19943;-76
2022/08/06 00:06:47;;;;;;;;;;;;;;;21.53;43.71;100381.91;1088892;46;19962;-75
2022/08/06 00:07:55;;;;;;;;;;;;;;;21.51;43.56;100377.50;1090175;39;20495;-75
2022/08/06 00:08:56;;;;;;;;;;;;;;;21.50;43.45;100383.16;1088384;54;19943;-76
2022/08/06 00:10:00;;;;;;;;;;;;;;;21.50;43.59;100383.16;1088426;54;19950;-76
2022/08/06 00:11:01;;;;;;;;;;;;;;;21.47;43.88;100376.28;1088483;54;19950;-75
2022/08/06 00:12:06;;;;;;;;;;;;;;;21.39;43.88;100389.22;1088382;54;19965;-75
2022/08/06 00:13:07;;;;;;;;;;;;;;;21.37;44.20;100383.16;1088471;54;19935;-75
2022/08/06 00:14:11;;;;;;;;;;;;;;;21.38;43.87;100379.38;1088403;54;20590;-75
2022/08/06 00:15:12;;;;;;;;;;;;;;;21.44;43.79;100394.91;1089035;46;19942;-75
2022/08/06 00:16:16;;;;;;;;;;;;;;;21.42;44.03;100388.81;1088268;54;19950;-76
2022/08/06 00:17:20;;;;;;;;;;;;;;;21.43;43.84;100387.78;1088001;54;19942;-76
2022/08/06 00:18:24;;;;;;;;;;;;;;;21.35;44.05;100395.06;1088003;54;19956;-75
2022/08/06 00:19:25;;;;;;;;;;;;;;;21.44;43.91;100389.44;1088343;54;19950;-74
2022/08/06 00:20:29;;;;;;;;;;;;;;;21.41;44.25;100389.84;1092945;39;20118;-76
2022/08/06 00:21:30;;;;;;;;;;;;;;;21.42;44.31;100386.09;1088411;54;19954;-74
2022/08/06 00:22:34;;;;;;;;;;;;;;;21.35;44.37;100394.25;1088313;54;19942;-75
2022/08/06 00:23:37;;;;;;;;;;;;;;;21.28;44.19;100390.69;1086949;54;19947;-76
2022/08/06 00:24:41;;;;;;;;;;;;;;;21.29;44.41;100398.63;1084360;54;19946;-76
2022/08/06 00:25:42;;;;;;;;;;;;;;;21.24;44.38;100395.69;1084165;54;19973;-77
2022/08/06 00:26:46;;;;;;;;;;;;;;;21.14;44.76;100396.09;1084067;54;19963;-76
2022/08/06 00:27:47;;;;;;;;;;;;;;;21.12;44.90;100398.16;1084445;54;19973;-76
2022/08/06 00:28:51;;;;;;;;;;;;;;;21.14;44.99;100397.97;1083965;54;19947;-76
2022/08/06 00:29:52;;;;;;;;;;;;;;;21.15;44.59;100396.94;1084326;54;20692;-76
2022/08/06 00:30:56;;;;;;;;;;;;;;;21.17;44.94;100398.41;1084078;54;19939;-75
2022/08/06 00:31:57;;;;;;;;;;;;;;;21.18;44.95;100408.25;1084163;54;19977;-75
2022/08/06 00:33:01;;;;;;;;;;;;;;;21.24;44.70;100403.00;1084495;46;19963;-76
2022/08/06 00:34:03;;;;;;;;;;;;;;;21.27;44.66;100399.88;1083748;54;19946;-77
2022/08/06 00:35:07;;;;;;;;;;;;;;;21.32;44.62;100403.66;1083779;54;19953;-76
2022/08/06 00:36:09;;;;;;;;;;;;;;;21.37;44.33;100405.75;1083240;54;19974;-76
2022/08/06 00:37:13;;;;;;;;;;;;;;;21.27;44.79;100405.31;1084022;54;20031;-77
2022/08/06 00:38:14;;;;;;;;;;;;;;;21.25;44.90;100401.97;1084228;54;19974;-76
2022/08/06 00:39:20;;;;;;;;;;;;;;;21.24;44.58;100395.69;1084649;39;20360;-76
2022/08/06 00:40:22;;;;;;;;;;;;;;;21.24;44.85;100401.13;1084595;54;19946;-77
2022/08/06 00:41:26;;;;;;;;;;;;;;;21.23;44.94;100399.47;1084257;54;19997;-77
2022/08/06 00:42:27;;;;;;;;;;;;;;;21.18;45.15;100400.09;1084559;54;19946;-76
2022/08/06 00:43:31;;;;;;;;;;;;;;;21.18;45.19;100404.66;1084634;54;20054;-75
2022/08/06 00:44:32;;;;;;;;;;;;;;;21.20;45.02;100402.59;1084309;54;20030;-76
2022/08/06 00:45:36;;;;;;;;;;;;;;;21.18;44.86;100391.06;1085167;39;20345;-77
2022/08/06 00:46:38;;;;;;;;;;;;;;;21.17;45.06;100397.56;1084394;54;19947;-77
2022/08/06 00:47:42;;;;;;;;;;;;;;;21.10;45.10;100399.44;1084493;54;19977;-76
2022/08/06 00:48:43;;;;;;;;;;;;;;;21.13;45.43;100399.03;1084343;54;19950;-76
2022/08/06 00:49:47;;;;;;;;;;;;;;;21.12;45.08;100394.63;1084184;54;20477;-77
2022/08/06 00:50:48;;;;;;;;;;;;;;;21.11;45.15;100395.66;1084567;54;19938;-75
2022/08/06 00:51:52;;;;;;;;;;;;;;;21.15;44.98;100386.91;1084309;54;19977;-76
2022/08/06 00:53:59;;;;;;;;;;;;;;;20.95;45.83;100392.28;1085560;31;20568;-79
2022/08/06 00:55:03;;;;;;;;;;;;;;;20.86;46.13;100393.53;1084470;54;20452;-78
2022/08/06 00:56:07;;;;;;;;;;;;;;;20.86;46.02;100396.25;1084573;54;19953;-81
2022/08/06 00:57:08;;;;;;;;;;;;;;;20.84;46.21;100395.59;1084362;54;19953;-79
2022/08/06 00:58:12;;;;;;;;;;;;;;;20.86;46.27;100399.78;1085327;31;20377;-79
2022/08/06 00:59:13;;;;;;;;;;;;;;;20.85;46.16;100397.28;1084416;54;19950;-78
2022/08/06 01:00:17;;;;;;;;;;;;;;;20.84;46.21;100409.19;1084779;54;19958;-78
2022/08/06 01:01:18;;;;;;;;;;;;;;;20.80;46.53;100411.47;1084873;54;19947;-79
2022/08/06 01:02:22;;;;;;;;;;;;;;;20.80;46.25;100416.06;1085117;54;19947;-80
2022/08/06 01:03:23;;;;;;;;;;;;;;;20.73;46.32;100410.59;1085120;39;20328;-78
2022/08/06 01:04:27;;;;;;;;;;;;;;;20.78;46.53;100423.59;1084965;54;19946;-79
2022/08/06 01:05:28;;;;;;;;;;;;;;;20.79;46.31;100415.22;1085050;54;19946;-81
2022/08/06 01:06:31;;;;;;;;;;;;;;;20.77;46.64;100416.47;1085050;54;19946;-77
2022/08/06 01:07:33;;;;;;;;;;;;;;;20.75;46.34;100419.38;1085801;39;20340;-77
2022/08/06 01:08:36;;;;;;;;;;;;;;;20.72;46.74;100428.75;1085456;39;20452;-80
2022/08/06 01:09:37;;;;;;;;;;;;;;;20.66;46.91;100421.41;1084594;54;19950;-80
2022/08/06 01:10:44;;;;;;;;;;;;;;;20.65;46.94;100424.31;1084538;54;19951;-79
2022/08/06 01:11:45;;;;;;;;;;;;;;;20.59;47.21;100431.41;1084466;54;20727;-82
2022/08/06 01:12:49;;;;;;;;;;;;;;;20.56;47.39;100427.22;1084961;54;19947;-78
2022/08/06 01:13:50;;;;;;;;;;;;;;;20.50;47.48;100429.91;1084892;54;19954;-78
2022/08/06 01:14:54;;;;;;;;;;;;;;;20.47;47.41;100422.16;1085387;46;19938;-77
2022/08/06 01:15:58;;;;;;;;;;;;;;;20.56;47.34;100429.09;1084921;54;19938;-79
2022/08/06 01:17:05;;;;;;;;;;;;;;;20.62;47.29;100432.88;1084854;54;19939;-78
2022/08/06 01:18:09;;;;;;;;;;;;;;;20.67;47.20;100422.25;1084950;54;19946;-81
2022/08/06 01:19:25;;;;;;;;;;;;;;;20.67;47.14;100425.81;1085347;39;20485;-79
2022/08/06 01:20:34;;;;;;;;;;;;;;;20.69;47.10;100426.44;1084964;54;19977;-78
2022/08/06 01:21:45;;;;;;;;;;;;;;;20.75;47.19;100424.00;1084805;54;19945;-78
2022/08/06 01:23:04;;;;;;;;;;;;;;;20.75;47.34;100429.41;1084928;54;19997;-82
2022/08/06 01:24:19;;;;;;;;;;;;;;;20.76;46.89;100426.50;1085490;54;19946;-79
2022/08/06 01:25:44;;;;;;;;;;;;;;;20.77;47.11;100425.47;1086312;39;20333;-79
2022/08/06 01:26:52;;;;;;;;;;;;;;;20.87;46.86;100423.19;1085105;54;19947;-81
2022/08/06 01:27:59;;;;;;;;;;;;;;;20.96;46.36;100425.72;1084670;54;19947;-79
2022/08/06 01:29:07;;;;;;;;;;;;;;;20.97;46.75;100422.78;1084619;54;19947;-80
2022/08/06 01:30:10;;;;;;;;;;;;;;;21.00;46.51;100422.41;1084789;54;19938;-79
2022/08/06 01:31:15;;;;;;;;;;;;;;;20.98;46.89;100424.47;1084966;54;19947;-81
2022/08/06 01:32:19;;;;;;;;;;;;;;;20.84;47.19;100422.78;1084923;54;20062;-80
2022/08/06 01:33:28;;;;;;;;;;;;;;;20.77;47.32;100430.88;1084962;54;19938;-79
2022/08/06 01:34:31;;;;;;;;;;;;;;;20.67;47.50;100436.69;1085177;54;20483;-80
2022/08/06 01:35:37;;;;;;;;;;;;;;;20.61;47.55;100431.22;1085113;54;19951;-81
2022/08/06 01:36:40;;;;;;;;;;;;;;;20.58;47.71;100430.56;1085590;54;20433;-79
2022/08/06 01:37:47;;;;;;;;;;;;;;;20.67;47.48;100427.69;1085471;54;19954;-79
2022/08/06 01:38:50;;;;;;;;;;;;;;;20.73;47.29;100430.47;1085541;54;20425;-82
2022/08/06 01:39:56;;;;;;;;;;;;;;;20.81;47.39;100429.47;1085457;54;19958;-79
2022/08/06 01:40:59;;;;;;;;;;;;;;;20.78;47.40;100431.75;1085362;54;19947;-78
2022/08/06 01:42:05;;;;;;;;;;;;;;;20.72;47.78;100428.75;1086150;39;20360;-79
2022/08/06 01:43:11;;;;;;;;;;;;;;;20.72;47.47;100428.75;1086414;39;20470;-78
2022/08/06 01:44:17;;;;;;;;;;;;;;;20.76;47.55;100422.94;1085365;54;19939;-79
2022/08/06 01:45:19;;;;;;;;;;;;;;;20.76;47.79;100431.09;1084806;54;19946;-78
2022/08/06 01:46:24;;;;;;;;;;;;;;;20.69;47.76;100431.84;1084792;54;20452;-79
2022/08/06 01:47:26;;;;;;;;;;;;;;;20.65;48.13;100436.03;1084718;54;19969;-78
2022/08/06 01:48:30;;;;;;;;;;;;;;;20.67;48.14;100428.53;1084969;54;19951;-81
2022/08/06 01:49:33;;;;;;;;;;;;;;;20.76;47.89;100431.94;1085357;54;19953;-80
2022/08/06 01:50:39;;;;;;;;;;;;;;;20.77;47.87;100427.34;1085536;54;19942;-79
2022/08/06 01:51:41;;;;;;;;;;;;;;;20.77;47.82;100424.63;1087101;31;20342;-81
2022/08/06 01:52:45;;;;;;;;;;;;;;;20.79;47.63;100427.97;1085426;54;19947;-79
2022/08/06 01:53:46;;;;;;;;;;;;;;;20.76;47.84;100428.38;1085087;54;19974;-81
2022/08/06 01:54:52;;;;;;;;;;;;;;;20.80;47.91;100437.78;1085293;54;19950;-78
2022/08/06 01:55:58;;;;;;;;;;;;;;;20.75;48.13;100429.41;1085422;54;20664;-77
2022/08/06 01:57:00;;;;;;;;;;;;;;;20.67;47.97;100433.09;1085220;54;19950;-78
2022/08/06 01:58:06;;;;;;;;;;;;;;;20.57;48.26;100439.75;1084967;54;19970;-80
2022/08/06 01:59:12;;;;;;;;;;;;;;;20.58;48.40;100436.00;1083980;54;19947;-77
2022/08/06 02:00:16;;;;;;;;;;;;;;;20.62;48.39;100431.00;1084427;39;20329;-77
2022/08/06 02:01:19;;;;;;;;;;;;;;;20.63;48.38;100442.72;1083914;54;19974;-78
2022/08/06 02:02:24;;;;;;;;;;;;;;;20.62;48.20;100435.59;1083944;54;20005;-81
2022/08/06 02:03:27;;;;;;;;;;;;;;;20.59;48.26;100431.41;1083330;54;19947;-79
2022/08/06 02:04:33;;;;;;;;;;;;;;;20.62;48.58;100433.72;1083273;54;19954;-80
2022/08/06 02:05:35;;;;;;;;;;;;;;;20.66;48.28;100435.00;1083929;54;19946;-78
2022/08/06 02:06:42;;;;;;;;;;;;;;;20.69;48.23;100429.16;1084185;54;19965;-79
2022/08/06 02:07:45;;;;;;;;;;;;;;;20.73;48.26;100430.47;1083968;54;19946;-78
2022/08/06 02:08:51;;;;;;;;;;;;;;;20.70;48.64;100432.72;1083893;54;19943;-78
2022/08/06 02:09:54;;;;;;;;;;;;;;;20.66;48.68;100436.88;1084005;54;19947;-79
2022/08/06 02:10:59;;;;;;;;;;;;;;;20.57;48.81;100434.31;1084063;54;19939;-77
2022/08/06 02:12:02;;;;;;;;;;;;;;;20.45;48.96;100435.09;1084022;54;20651;-79
2022/08/06 02:13:06;;;;;;;;;;;;;;;20.36;49.35;100437.97;1084158;54;19958;-78
2022/08/06 02:14:12;;;;;;;;;;;;;;;20.31;49.26;100439.59;1084062;54;19947;-77
2022/08/06 02:15:17;;;;;;;;;;;;;;;20.25;49.54;100433.09;1084271;54;19970;-77
2022/08/06 02:16:19;;;;;;;;;;;;;;;20.22;49.53;100431.63;1083899;54;19951;-80
2022/08/06 02:17:27;;;;;;;;;;;;;;;20.20;49.75;100432.88;1084182;54;19993;-79
2022/08/06 02:18:29;;;;;;;;;;;;;;;20.10;50.06;100438.63;1084164;54;19950;-79
2022/08/06 02:19:34;;;;;;;;;;;;;;;20.15;50.21;100438.03;1084421;46;19973;-82
2022/08/06 02:20:37;;;;;;;;;;;;;;;20.19;49.75;100440.16;1086431;46;19962;-81
2022/08/06 02:21:43;;;;;;;;;;;;;;;20.16;49.81;100437.88;1087306;54;19962;-85
2022/08/06 02:22:44;;;;;;;;;;;;;;;20.16;50.15;100445.16;1087580;54;19934;-82
2022/08/06 02:23:49;;;;;;;;;;;;;;;20.17;50.11;100434.09;1087985;54;19950;-83
2022/08/06 02:24:50;;;;;;;;;;;;;;;20.14;50.02;100433.66;1088554;47;19946;-83
2022/08/06 02:25:57;;;;;;;;;;;;;;;20.12;50.07;100436.56;1087899;54;20002;-82
2022/08/06 02:27:01;;;;;;;;;;;;;;;20.14;50.10;100437.22;1089115;47;19941;-81
2022/08/06 02:29:30;;;;;;;;;;;;;;;20.08;50.40;100436.13;1089731;47;19934;-83
2022/08/06 02:30:34;;;;;;;;;;;;;;;20.06;50.13;100438.19;1090570;47;19942;-80
2022/08/06 02:31:40;;;;;;;;;;;;;;;20.02;50.42;100436.94;1088327;54;19999;-84
2022/08/06 02:32:41;;;;;;;;;;;;;;;20.05;50.13;100432.97;1088812;47;19954;-83
2022/08/06 02:34:00;;;;;;;;;;;;;;;19.96;50.60;100435.00;1088328;54;19943;-82
2022/08/06 02:35:01;;;;;;;;;;;;;;;19.98;50.83;100432.09;1088688;47;19938;-83
2022/08/06 02:36:14;;;;;;;;;;;;;;;20.06;50.30;100435.47;1088098;54;19923;-82
2022/08/06 02:37:18;;;;;;;;;;;;;;;20.11;50.28;100434.88;1087211;54;19950;-80
2022/08/06 02:38:25;;;;;;;;;;;;;;;20.13;50.52;100437.41;1086360;54;19950;-80
2022/08/06 02:39:27;;;;;;;;;;;;;;;20.06;50.53;100438.19;1086075;54;19946;-82
2022/08/06 02:40:35;;;;;;;;;;;;;;;20.02;50.79;100433.38;1087336;39;20578;-80
2022/08/06 02:41:40;;;;;;;;;;;;;;;19.93;50.91;100438.13;1086038;54;19950;-79
2022/08/06 02:42:47;;;;;;;;;;;;;;;19.99;50.58;100436.47;1086086;54;19954;-82
2022/08/06 02:43:51;;;;;;;;;;;;;;;19.95;50.86;100433.31;1086247;54;19946;-80
2022/08/06 02:45:00;;;;;;;;;;;;;;;19.93;51.10;100440.81;1086460;54;20848;-79
2022/08/06 02:46:06;;;;;;;;;;;;;;;19.92;51.03;100431.84;1086375;54;19950;-80
2022/08/06 02:47:11;;;;;;;;;;;;;;;19.94;51.15;100445.19;1086103;54;19947;-80
2022/08/06 02:48:15;;;;;;;;;;;;;;;19.89;51.10;100429.50;1086194;54;20006;-82
2022/08/06 02:49:21;;;;;;;;;;;;;;;19.84;51.21;100433.84;1086062;54;19946;-80
2022/08/06 02:50:27;;;;;;;;;;;;;;;19.80;51.37;100431.50;1086361;54;19947;-80
2022/08/06 02:51:35;;;;;;;;;;;;;;;19.76;51.38;100430.22;1086643;54;19946;-81
2022/08/06 02:52:38;;;;;;;;;;;;;;;19.73;51.54;100430.63;1086794;54;19950;-81
2022/08/06 02:53:45;;;;;;;;;;;;;;;19.69;51.55;100429.31;1086638;54;22351;-80
2022/08/06 02:54:48;;;;;;;;;;;;;;;19.69;51.81;100429.31;1086853;54;19965;-85
2022/08/06 02:55:55;;;;;;;;;;;;;;;19.72;51.88;100425.38;1087806;54;20002;-84
2022/08/06 02:56:59;;;;;;;;;;;;;;;19.70;51.95;100428.28;1087599;54;19942;-87
2022/08/06 02:58:07;;;;;;;;;;;;;;;19.70;51.69;100422.88;1088272;47;19950;-83
2022/08/06 02:59:08;;;;;;;;;;;;;;;19.74;51.97;100424.13;1088000;54;19943;-83
2022/08/06 03:00:15;;;;;;;;;;;;;;;19.73;51.68;100422.50;1088164;54;19958;-84
2022/08/06 03:01:20;;;;;;;;;;;;;;;19.67;51.92;100425.97;1088345;39;20638;-84
2022/08/06 03:02:26;;;;;;;;;;;;;;;19.67;52.14;100423.25;1088125;54;19947;-84
2022/08/06 03:03:27;;;;;;;;;;;;;;;19.68;51.72;100422.22;1087940;54;19997;-86
2022/08/06 03:04:32;;;;;;;;;;;;;;;19.67;52.05;100423.25;1087763;54;19961;-86
2022/08/06 03:05:35;;;;;;;;;;;;;;;19.71;52.03;100426.41;1087981;54;19953;-82
2022/08/06 03:06:40;;;;;;;;;;;;;;;19.76;51.82;100427.50;1087976;54;19947;-85
2022/08/06 03:07:42;;;;;;;;;;;;;;;19.72;51.79;100428.09;1087646;54;19966;-83
2022/08/06 03:08:46;;;;;;;;;;;;;;;19.61;52.13;100426.75;1087530;54;19945;-82
2022/08/06 03:09:49;;;;;;;;;;;;;;;19.57;52.11;100428.16;1087949;54;19943;-86
2022/08/06 03:10:53;;;;;;;;;;;;;;;19.64;52.20;100429.09;1087888;54;19998;-86
2022/08/06 03:11:56;;;;;;;;;;;;;;;19.72;51.99;100437.06;1087917;54;19958;-85
2022/08/06 03:13:00;;;;;;;;;;;;;;;19.67;52.16;100434.09;1087871;54;19986;-81
2022/08/06 03:14:02;;;;;;;;;;;;;;;19.67;51.95;100434.09;1087187;54;19947;-85
2022/08/06 03:15:08;;;;;;;;;;;;;;;19.70;52.20;100433.72;1087451;54;20527;-84
2022/08/06 03:16:13;;;;;;;;;;;;;;;19.70;51.88;100436.44;1087450;54;19962;-82
2022/08/06 03:17:18;;;;;;;;;;;;;;;19.64;52.22;100440.75;1087909;54;19974;-82
2022/08/06 03:18:20;;;;;;;;;;;;;;;19.64;52.14;100442.66;1087946;54;19945;-84
2022/08/06 03:19:24;;;;;;;;;;;;;;;19.58;52.42;100440.69;1087746;54;19951;-84
2022/08/06 03:20:26;;;;;;;;;;;;;;;19.54;52.56;100437.53;1087576;54;19966;-82
2022/08/06 03:21:31;;;;;;;;;;;;;;;19.47;52.97;100442.06;1085767;54;19938;-77
2022/08/06 03:22:34;;;;;;;;;;;;;;;19.47;52.92;100450.19;1085007;39;20361;-78
2022/08/06 03:23:39;;;;;;;;;;;;;;;19.44;52.88;100446.00;1084798;54;20452;-79
2022/08/06 03:24:41;;;;;;;;;;;;;;;19.49;52.64;100451.66;1085139;54;19954;-80
2022/08/06 03:25:46;;;;;;;;;;;;;;;19.51;52.85;100450.63;1084463;54;19974;-79
2022/08/06 03:26:48;;;;;;;;;;;;;;;19.49;52.79;100450.84;1085402;46;19946;-78
2022/08/06 03:27:53;;;;;;;;;;;;;;;19.53;52.84;100454.00;1085192;54;19962;-78
2022/08/06 03:28:55;;;;;;;;;;;;;;;19.55;52.82;100451.94;1085135;46;19946;-80
2022/08/06 03:30:00;;;;;;;;;;;;;;;19.54;52.82;100455.69;1084805;54;19950;-78
2022/08/06 03:31:01;;;;;;;;;;;;;;;19.52;53.13;100458.56;1084885;54;19954;-79
2022/08/06 03:32:08;;;;;;;;;;;;;;;19.61;52.81;100462.00;1084218;54;19950;-79
2022/08/06 03:33:12;;;;;;;;;;;;;;;19.65;52.47;100463.28;1084881;54;19947;-85
2022/08/06 03:34:17;;;;;;;;;;;;;;;19.52;53.16;100463.16;1087023;54;19953;-81
2022/08/06 03:35:19;;;;;;;;;;;;;;;19.48;53.16;100468.97;1087312;54;19943;-80
2022/08/06 03:36:24;;;;;;;;;;;;;;;19.50;52.92;100466.09;1087381;54;20663;-80
2022/08/06 03:37:25;;;;;;;;;;;;;;;19.53;52.80;100464.84;1087427;54;19935;-81
2022/08/06 03:38:31;;;;;;;;;;;;;;;19.42;53.04;100468.88;1087204;54;20449;-81
2022/08/06 03:39:32;;;;;;;;;;;;;;;19.38;53.65;100468.44;1087448;54;19942;-81
2022/08/06 03:40:36;;;;;;;;;;;;;;;19.39;53.50;100467.41;1087533;54;20429;-80
2022/08/06 03:41:38;;;;;;;;;;;;;;;19.32;53.90;100467.34;1085973;54;19969;-80
2022/08/06 03:42:43;;;;;;;;;;;;;;;19.31;53.99;100478.38;1085155;54;19947;-78
2022/08/06 03:43:45;;;;;;;;;;;;;;;19.32;54.00;100474.66;1085650;54;19974;-80
2022/08/06 03:44:48;;;;;;;;;;;;;;;19.23;53.85;100476.63;1085128;54;19945;-80
2022/08/06 03:45:52;;;;;;;;;;;;;;;19.24;54.23;100482.91;1085468;54;19946;-79
2022/08/06 03:46:58;;;;;;;;;;;;;;;19.21;54.24;100480.56;1086093;39;20380;-79
2022/08/06 03:48:03;;;;;;;;;;;;;;;19.23;53.99;100479.31;1085420;54;19946;-79
2022/08/06 03:49:07;;;;;;;;;;;;;;;19.27;54.12;100482.53;1084726;54;19946;-78
2022/08/06 03:50:10;;;;;;;;;;;;;;;19.14;54.51;100485.91;1085000;46;19947;-79
2022/08/06 03:51:16;;;;;;;;;;;;;;;19.21;54.24;100486.84;1085383;54;19946;-81
2022/08/06 03:52:20;;;;;;;;;;;;;;;19.23;54.10;100487.47;1085728;54;19974;-81
2022/08/06 03:53:28;;;;;;;;;;;;;;;19.26;53.99;100486.25;1085735;54;20001;-79
2022/08/06 03:54:31;;;;;;;;;;;;;;;19.25;54.37;100492.72;1085218;54;20477;-80
2022/08/06 03:55:35;;;;;;;;;;;;;;;19.24;54.11;100489.16;1086231;39;20341;-81
2022/08/06 03:56:40;;;;;;;;;;;;;;;19.14;54.56;100494.88;1085652;54;19942;-79
2022/08/06 03:57:46;;;;;;;;;;;;;;;19.19;54.38;100486.19;1085697;54;19942;-79
2022/08/06 03:58:47;;;;;;;;;;;;;;;19.27;53.94;100490.66;1086296;54;19939;-80
2022/08/06 03:59:52;;;;;;;;;;;;;;;19.24;54.27;100491.84;1086355;54;19946;-81
2022/08/06 04:00:56;;;;;;;;;;;;;;;19.26;54.05;100497.09;1085543;54;19947;-80
2022/08/06 04:02:00;;;;;;;;;;;;;;;19.18;54.31;100501.59;1084630;54;20210;-78
2022/08/06 04:03:04;;;;;;;;;;;;;;;19.19;54.59;100497.03;1084707;54;19950;-79
2022/08/06 04:04:08;;;;;;;;;;;;;;;19.11;54.61;100500.66;1084688;54;19946;-80
2022/08/06 04:05:10;;;;;;;;;;;;;;;19.06;54.68;100497.72;1085235;54;19957;-81
2022/08/06 04:06:14;;;;;;;;;;;;;;;18.97;55.17;100504.25;1085302;54;19943;-79
2022/08/06 04:07:15;;;;;;;;;;;;;;;18.96;55.36;100495.28;1087607;39;20310;-80
2022/08/06 04:08:21;;;;;;;;;;;;;;;19.02;54.97;100501.81;1087805;31;20522;-80
2022/08/06 04:09:23;;;;;;;;;;;;;;;19.04;55.00;100502.47;1086630;54;19946;-80
2022/08/06 04:10:28;;;;;;;;;;;;;;;19.06;54.75;100503.13;1086449;54;19951;-80
2022/08/06 04:11:30;;;;;;;;;;;;;;;18.98;55.06;100506.78;1086642;54;19942;-80
2022/08/06 04:12:35;;;;;;;;;;;;;;;18.95;55.37;100503.59;1086768;54;19950;-81
2022/08/06 04:13:37;;;;;;;;;;;;;;;18.92;55.38;100506.66;1086817;54;19950;-79
2022/08/06 04:14:41;;;;;;;;;;;;;;;18.95;55.35;100506.31;1084690;54;19954;-78
2022/08/06 04:15:42;;;;;;;;;;;;;;;18.94;55.54;100505.44;1084484;54;19950;-79
2022/08/06 04:16:47;;;;;;;;;;;;;;;18.94;55.43;100507.34;1085165;54;20414;-78
2022/08/06 04:17:49;;;;;;;;;;;;;;;18.86;55.65;100505.53;1085415;54;20489;-79
2022/08/06 04:18:56;;;;;;;;;;;;;;;18.75;55.79;100506.84;1085492;54;19947;-79
2022/08/06 04:19:58;;;;;;;;;;;;;;;18.75;56.13;100511.44;1083536;54;19958;-77
2022/08/06 04:21:04;;;;;;;;;;;;;;;18.79;55.89;100512.72;1084451;54;19951;-77
2022/08/06 04:22:05;;;;;;;;;;;;;;;18.79;55.75;100510.88;1086958;54;19950;-76
2022/08/06 04:23:09;;;;;;;;;;;;;;;18.76;56.18;100519.38;1090776;39;20451;-78
2022/08/06 04:24:10;;;;;;;;;;;;;;;18.75;55.91;100517.69;1088167;54;19974;-78
2022/08/06 04:25:14;;;;;;;;;;;;;;;18.83;55.93;100520.28;1087913;54;19950;-77
2022/08/06 04:26:19;;;;;;;;;;;;;;;18.79;56.20;100515.44;1087885;54;19942;-78
2022/08/06 04:27:23;;;;;;;;;;;;;;;18.68;56.53;100519.47;1087989;54;19939;-77
2022/08/06 04:28:26;;;;;;;;;;;;;;;18.69;56.31;100521.16;1088376;39;20522;-79
2022/08/06 04:29:31;;;;;;;;;;;;;;;18.67;56.21;100525.91;1089823;39;20561;-79
2022/08/06 04:30:33;;;;;;;;;;;;;;;18.67;56.48;100525.91;1087960;54;19949;-78
2022/08/06 04:31:37;;;;;;;;;;;;;;;18.65;56.63;100522.53;1087839;54;19998;-78
2022/08/06 04:32:40;;;;;;;;;;;;;;;18.58;56.67;100527.03;1087631;54;19954;-77
2022/08/06 04:33:45;;;;;;;;;;;;;;;18.52;57.00;100529.44;1087585;54;19943;-77
2022/08/06 04:34:50;;;;;;;;;;;;;;;18.48;57.12;100532.69;1087599;47;20781;-78
2022/08/06 04:35:54;;;;;;;;;;;;;;;18.52;56.80;100534.84;1087478;54;20002;-78
2022/08/06 04:36:57;;;;;;;;;;;;;;;18.53;56.82;100541.94;1087447;54;19942;-77
2022/08/06 04:38:01;;;;;;;;;;;;;;;18.49;57.04;100537.94;1087983;54;21036;-78
2022/08/06 04:39:02;;;;;;;;;;;;;;;18.45;57.13;100536.63;1087872;54;19943;-77
2022/08/06 04:40:09;;;;;;;;;;;;;;;18.38;57.17;100538.38;1087840;54;19943;-77
2022/08/06 04:41:10;;;;;;;;;;;;;;;18.46;57.28;100530.19;1087603;54;19945;-77
2022/08/06 04:42:14;;;;;;;;;;;;;;;18.53;56.65;100531.13;1087477;54;19946;-79
2022/08/06 04:43:16;;;;;;;;;;;;;;;18.58;56.83;100537.84;1087895;54;19943;-76
2022/08/06 04:44:20;;;;;;;;;;;;;;;18.62;56.61;100528.31;1087799;54;19943;-76
2022/08/06 04:45:22;;;;;;;;;;;;;;;18.59;56.93;100529.53;1087937;54;19943;-76
2022/08/06 04:46:26;;;;;;;;;;;;;;;18.55;56.78;100539.91;1088276;54;19943;-77
2022/08/06 04:47:29;;;;;;;;;;;;;;;18.48;57.21;100533.56;1089670;46;20537;-77
2022/08/06 04:48:33;;;;;;;;;;;;;;;18.42;57.34;100534.28;1088261;54;19943;-78
2022/08/06 04:49:34;;;;;;;;;;;;;;;18.43;57.25;100535.13;1088226;54;19950;-78
2022/08/06 04:50:41;;;;;;;;;;;;;;;18.39;57.27;100540.91;1088283;54;19942;-78
2022/08/06 04:51:44;;;;;;;;;;;;;;;18.37;57.37;100542.13;1089510;46;19938;-77
2022/08/06 04:52:48;;;;;;;;;;;;;;;18.39;57.59;100534.66;1088385;54;19943;-79
2022/08/06 04:53:50;;;;;;;;;;;;;;;18.34;57.49;100539.75;1089775;46;19999;-80
2022/08/06 04:54:54;;;;;;;;;;;;;;;18.37;57.61;100542.13;1088408;54;19994;-79
2022/08/06 04:55:55;;;;;;;;;;;;;;;18.34;57.62;100540.63;1088445;54;19939;-78
2022/08/06 04:56:59;;;;;;;;;;;;;;;18.31;57.59;100543.69;1088354;54;19922;-79
2022/08/06 04:58:01;;;;;;;;;;;;;;;18.30;57.84;100533.88;1088510;54;19942;-77
2022/08/06 04:59:05;;;;;;;;;;;;;;;18.32;57.80;100544.53;1089170;46;19946;-78
2022/08/06 05:00:07;;;;;;;;;;;;;;;18.31;57.76;100535.56;1088462;54;19942;-76
2022/08/06 05:01:11;;;;;;;;;;;;;;;18.36;57.55;100538.59;1088350;46;19950;-77
2022/08/06 05:02:12;;;;;;;;;;;;;;;18.36;57.45;100540.44;1090093;46;19993;-77
2022/08/06 05:03:16;;;;;;;;;;;;;;;18.29;57.53;100540.31;1089957;46;19945;-77
2022/08/06 05:04:17;;;;;;;;;;;;;;;18.26;57.82;100545.25;1088308;54;19947;-77
2022/08/06 05:05:22;;;;;;;;;;;;;;;18.18;57.94;100549.72;1088453;54;19946;-78
2022/08/06 05:06:31;;;;;;;;;;;;;;;18.12;58.36;100542.34;1090912;46;19953;-77
2022/08/06 05:07:36;;;;;;;;;;;;;;;18.09;58.25;100557.06;1090069;46;19923;-78
2022/08/06 05:08:40;;;;;;;;;;;;;;;18.03;58.80;100549.69;1088037;54;19950;-79
2022/08/06 05:09:43;;;;;;;;;;;;;;;18.07;58.46;100556.44;1088227;46;19958;-80
2022/08/06 05:10:46;;;;;;;;;;;;;;;18.06;58.90;100565.56;1088789;46;19946;-79
2022/08/06 05:11:52;;;;;;;;;;;;;;;18.07;58.37;100566.38;1088484;54;19938;-79
2022/08/06 05:12:55;;;;;;;;;;;;;;;18.10;58.74;100568.75;1088373;54;19935;-81
2022/08/06 05:14:01;;;;;;;;;;;;;;;18.19;58.43;100564.09;1087997;54;19954;-80
2022/08/06 05:15:07;;;;;;;;;;;;;;;18.26;58.14;100564.19;1090697;46;19950;-79
2022/08/06 05:16:09;;;;;;;;;;;;;;;18.17;58.34;100569.69;1088416;54;20042;-79
2022/08/06 05:17:15;;;;;;;;;;;;;;;18.07;58.46;100566.38;1093464;39;20545;-78
2022/08/06 05:18:19;;;;;;;;;;;;;;;18.04;58.86;100575.72;1090591;46;19950;-79
2022/08/06 05:19:26;;;;;;;;;;;;;;;18.05;59.06;100565.72;1087418;54;19947;-80
2022/08/06 05:20:31;;;;;;;;;;;;;;;18.06;58.88;100578.22;1087959;46;19946;-81
2022/08/06 05:21:39;;;;;;;;;;;;;;;18.04;58.82;100577.59;1090357;46;19946;-79
2022/08/06 05:22:42;;;;;;;;;;;;;;;18.04;58.69;100573.00;1087317;54;19934;-79
2022/08/06 05:23:54;;;;;;;;;;;;;;;18.06;58.99;100580.94;1089595;46;19990;-80
2022/08/06 05:24:55;;;;;;;;;;;;;;;18.08;58.61;100576.19;1088127;54;19950;-81
2022/08/06 05:26:02;;;;;;;;;;;;;;;18.16;58.34;100576.13;1089890;46;19949;-81
2022/08/06 05:27:03;;;;;;;;;;;;;;;18.18;58.65;100582.19;1087331;54;19939;-79
2022/08/06 05:28:07;;;;;;;;;;;;;;;18.21;58.49;100581.84;1087287;54;19947;-81
2022/08/06 05:29:09;;;;;;;;;;;;;;;18.22;57.58;100586.22;1087540;54;19966;-81
2022/08/06 05:30:13;;;;;;;;;;;;;;;18.21;57.83;100576.44;1087529;54;19998;-79
2022/08/06 05:31:14;;;;;;;;;;;;;;;18.21;57.68;100583.69;1087291;54;19947;-83